sensor_id;sensor_type;location;lat;lon;timestamp;P1;durP1;ratioP1;P2;durP2;ratioP2
49688;SDS011;70518;51.400;7.428;2023-09-30T00:02:18;7.63;;;2.20;;
49688;SDS011;70518;51.400;7.428;2023-09-30T00:04:43;10.13;;;2.45;;
49688;SDS011;70518;51.400;7.428;2023-09-30T00:07:09;10.05;;;2.42;;
49688;SDS011;70518;51.400;7.428;2023-09-30T00:09:34;8.75;;;2.08;;
49688;SDS011;70518;51.400;7.428;2023-09-30T00:12:00;13.82;;;4.10;;
49688;SDS011;70518;51.400;7.428;2023-09-30T00:14:25;15.07;;;3.67;;
49688;SDS011;70518;51.400;7.428;2023-09-30T00:16:50;6.80;;;1.98;;
49688;SDS011;70518;51.400;7.428;2023-09-30T00:19:16;8.27;;;2.25;;
49688;SDS011;70518;51.400;7.428;2023-09-30T00:21:41;7.45;;;1.90;;
49688;SDS011;70518;51.400;7.428;2023-09-30T00:24:07;7.93;;;2.33;;
49688;SDS011;70518;51.400;7.428;2023-09-30T00:26:32;6.93;;;1.77;;
49688;SDS011;70518;51.400;7.428;2023-09-30T00:28:58;9.48;;;2.35;;
49688;SDS011;70518;51.400;7.428;2023-09-30T00:31:23;9.00;;;2.58;;
49688;SDS011;70518;51.400;7.428;2023-09-30T00:33:51;7.20;;;1.88;;
49688;SDS011;70518;51.400;7.428;2023-09-30T00:36:16;7.93;;;1.85;;
49688;SDS011;70518;51.400;7.428;2023-09-30T00:38:41;7.35;;;1.52;;
49688;SDS011;70518;51.400;7.428;2023-09-30T00:41:06;6.55;;;1.90;;
49688;SDS011;70518;51.400;7.428;2023-09-30T00:43:32;5.78;;;1.67;;
49688;SDS011;70518;51.400;7.428;2023-09-30T00:46:03;9.88;;;3.17;;
49688;SDS011;70518;51.400;7.428;2023-09-30T00:48:36;7.63;;;2.20;;
49688;SDS011;70518;51.400;7.428;2023-09-30T00:51:02;8.35;;;1.77;;
49688;SDS011;70518;51.400;7.428;2023-09-30T00:53:28;10.82;;;1.80;;
49688;SDS011;70518;51.400;7.428;2023-09-30T00:55:55;9.68;;;1.90;;
49688;SDS011;70518;51.400;7.428;2023-09-30T00:58:21;5.78;;;2.42;;
49688;SDS011;70518;51.400;7.428;2023-09-30T01:00:50;7.22;;;2.25;;
49688;SDS011;70518;51.400;7.428;2023-09-30T01:03:16;7.15;;;1.40;;
49688;SDS011;70518;51.400;7.428;2023-09-30T01:05:42;7.70;;;1.80;;
49688;SDS011;70518;51.400;7.428;2023-09-30T01:08:07;5.65;;;1.77;;
49688;SDS011;70518;51.400;7.428;2023-09-30T01:10:33;7.03;;;1.67;;
49688;SDS011;70518;51.400;7.428;2023-09-30T01:12:58;7.40;;;1.45;;
49688;SDS011;70518;51.400;7.428;2023-09-30T01:15:24;5.75;;;1.90;;
49688;SDS011;70518;51.400;7.428;2023-09-30T01:17:49;6.63;;;1.50;;
49688;SDS011;70518;51.400;7.428;2023-09-30T01:20:15;6.22;;;1.80;;
49688;SDS011;70518;51.400;7.428;2023-09-30T01:22:46;10.02;;;1.77;;
49688;SDS011;70518;51.400;7.428;2023-09-30T01:25:11;8.13;;;1.45;;
49688;SDS011;70518;51.400;7.428;2023-09-30T01:27:36;7.00;;;1.58;;
49688;SDS011;70518;51.400;7.428;2023-09-30T01:30:02;6.93;;;1.80;;
49688;SDS011;70518;51.400;7.428;2023-09-30T01:32:27;10.60;;;2.25;;
49688;SDS011;70518;51.400;7.428;2023-09-30T01:34:53;7.72;;;1.92;;
49688;SDS011;70518;51.400;7.428;2023-09-30T01:37:18;11.18;;;2.05;;
49688;SDS011;70518;51.400;7.428;2023-09-30T01:39:44;8.63;;;1.88;;
49688;SDS011;70518;51.400;7.428;2023-09-30T01:42:10;7.05;;;2.15;;
49688;SDS011;70518;51.400;7.428;2023-09-30T01:44:35;8.65;;;2.28;;
49688;SDS011;70518;51.400;7.428;2023-09-30T01:47:01;9.38;;;2.75;;
49688;SDS011;70518;51.400;7.428;2023-09-30T01:49:26;8.90;;;2.22;;
49688;SDS011;70518;51.400;7.428;2023-09-30T01:51:51;7.30;;;2.00;;
49688;SDS011;70518;51.400;7.428;2023-09-30T01:54:17;7.18;;;2.33;;
49688;SDS011;70518;51.400;7.428;2023-09-30T01:56:42;10.80;;;3.00;;
49688;SDS011;70518;51.400;7.428;2023-09-30T01:59:07;8.07;;;2.65;;
49688;SDS011;70518;51.400;7.428;2023-09-30T02:01:33;9.95;;;2.28;;
49688;SDS011;70518;51.400;7.428;2023-09-30T02:03:58;10.48;;;2.25;;
49688;SDS011;70518;51.400;7.428;2023-09-30T02:06:23;14.43;;;1.83;;
49688;SDS011;70518;51.400;7.428;2023-09-30T02:08:48;7.72;;;1.80;;
49688;SDS011;70518;51.400;7.428;2023-09-30T02:11:14;6.65;;;2.33;;
49688;SDS011;70518;51.400;7.428;2023-09-30T02:13:40;8.23;;;2.03;;
49688;SDS011;70518;51.400;7.428;2023-09-30T02:16:11;9.82;;;2.03;;
49688;SDS011;70518;51.400;7.428;2023-09-30T02:18:37;8.48;;;2.33;;
49688;SDS011;70518;51.400;7.428;2023-09-30T02:21:02;13.95;;;2.95;;
49688;SDS011;70518;51.400;7.428;2023-09-30T02:23:29;10.98;;;3.00;;
49688;SDS011;70518;51.400;7.428;2023-09-30T02:25:54;10.85;;;2.88;;
49688;SDS011;70518;51.400;7.428;2023-09-30T02:28:20;9.73;;;2.83;;
49688;SDS011;70518;51.400;7.428;2023-09-30T02:30:45;9.98;;;3.05;;
49688;SDS011;70518;51.400;7.428;2023-09-30T02:33:10;9.95;;;2.80;;
49688;SDS011;70518;51.400;7.428;2023-09-30T02:35:36;10.77;;;3.30;;
49688;SDS011;70518;51.400;7.428;2023-09-30T02:38:03;10.45;;;2.95;;
49688;SDS011;70518;51.400;7.428;2023-09-30T02:40:29;14.30;;;3.55;;
49688;SDS011;70518;51.400;7.428;2023-09-30T02:42:54;11.27;;;2.53;;
49688;SDS011;70518;51.400;7.428;2023-09-30T02:45:19;8.20;;;2.53;;
49688;SDS011;70518;51.400;7.428;2023-09-30T02:47:44;8.35;;;3.05;;
49688;SDS011;70518;51.400;7.428;2023-09-30T02:50:10;8.65;;;2.92;;
49688;SDS011;70518;51.400;7.428;2023-09-30T02:52:39;10.35;;;2.70;;
49688;SDS011;70518;51.400;7.428;2023-09-30T02:55:06;9.68;;;2.88;;
49688;SDS011;70518;51.400;7.428;2023-09-30T02:57:32;8.73;;;2.40;;
49688;SDS011;70518;51.400;7.428;2023-09-30T02:59:58;10.07;;;2.95;;
49688;SDS011;70518;51.400;7.428;2023-09-30T03:02:25;8.18;;;2.63;;
49688;SDS011;70518;51.400;7.428;2023-09-30T03:04:51;10.93;;;2.78;;
49688;SDS011;70518;51.400;7.428;2023-09-30T03:07:18;13.48;;;2.80;;
49688;SDS011;70518;51.400;7.428;2023-09-30T03:09:44;9.05;;;2.65;;
49688;SDS011;70518;51.400;7.428;2023-09-30T03:12:09;10.10;;;3.03;;
49688;SDS011;70518;51.400;7.428;2023-09-30T03:14:37;11.05;;;2.78;;
49688;SDS011;70518;51.400;7.428;2023-09-30T03:17:02;8.95;;;2.63;;
49688;SDS011;70518;51.400;7.428;2023-09-30T03:19:28;8.50;;;2.63;;
49688;SDS011;70518;51.400;7.428;2023-09-30T03:21:54;8.63;;;2.97;;
49688;SDS011;70518;51.400;7.428;2023-09-30T03:24:19;8.65;;;2.58;;
49688;SDS011;70518;51.400;7.428;2023-09-30T03:26:46;9.13;;;2.13;;
49688;SDS011;70518;51.400;7.428;2023-09-30T03:29:11;12.93;;;2.97;;
49688;SDS011;70518;51.400;7.428;2023-09-30T03:31:37;6.95;;;2.45;;
49688;SDS011;70518;51.400;7.428;2023-09-30T03:34:02;8.55;;;2.05;;
49688;SDS011;70518;51.400;7.428;2023-09-30T03:36:29;11.20;;;3.53;;
49688;SDS011;70518;51.400;7.428;2023-09-30T03:38:54;8.48;;;2.30;;
49688;SDS011;70518;51.400;7.428;2023-09-30T03:41:20;11.50;;;2.47;;
49688;SDS011;70518;51.400;7.428;2023-09-30T03:43:45;8.95;;;2.20;;
49688;SDS011;70518;51.400;7.428;2023-09-30T03:46:12;9.23;;;2.95;;
49688;SDS011;70518;51.400;7.428;2023-09-30T03:48:37;10.20;;;2.20;;
49688;SDS011;70518;51.400;7.428;2023-09-30T03:51:11;10.50;;;2.20;;
49688;SDS011;70518;51.400;7.428;2023-09-30T03:53:45;8.48;;;2.28;;
49688;SDS011;70518;51.400;7.428;2023-09-30T03:56:11;8.02;;;2.70;;
49688;SDS011;70518;51.400;7.428;2023-09-30T03:58:40;10.38;;;2.95;;
49688;SDS011;70518;51.400;7.428;2023-09-30T04:01:07;9.38;;;2.72;;
49688;SDS011;70518;51.400;7.428;2023-09-30T04:03:33;9.43;;;2.78;;
49688;SDS011;70518;51.400;7.428;2023-09-30T04:06:00;9.60;;;2.33;;
49688;SDS011;70518;51.400;7.428;2023-09-30T04:08:27;9.13;;;2.85;;
49688;SDS011;70518;51.400;7.428;2023-09-30T04:10:53;11.02;;;3.15;;
49688;SDS011;70518;51.400;7.428;2023-09-30T04:13:19;7.55;;;2.17;;
49688;SDS011;70518;51.400;7.428;2023-09-30T04:15:46;12.30;;;2.60;;
49688;SDS011;70518;51.400;7.428;2023-09-30T04:18:11;8.00;;;2.25;;
49688;SDS011;70518;51.400;7.428;2023-09-30T04:20:37;10.88;;;2.50;;
49688;SDS011;70518;51.400;7.428;2023-09-30T04:23:04;6.90;;;2.00;;
49688;SDS011;70518;51.400;7.428;2023-09-30T04:25:31;6.13;;;2.00;;
49688;SDS011;70518;51.400;7.428;2023-09-30T04:27:57;11.48;;;2.60;;
49688;SDS011;70518;51.400;7.428;2023-09-30T04:30:22;11.02;;;2.70;;
49688;SDS011;70518;51.400;7.428;2023-09-30T04:32:47;7.13;;;2.10;;
49688;SDS011;70518;51.400;7.428;2023-09-30T04:35:13;5.97;;;2.08;;
49688;SDS011;70518;51.400;7.428;2023-09-30T04:37:38;7.03;;;1.88;;
49688;SDS011;70518;51.400;7.428;2023-09-30T04:40:03;8.10;;;2.22;;
49688;SDS011;70518;51.400;7.428;2023-09-30T04:42:34;8.25;;;2.20;;
49688;SDS011;70518;51.400;7.428;2023-09-30T04:45:03;9.57;;;2.58;;
49688;SDS011;70518;51.400;7.428;2023-09-30T04:47:31;7.22;;;1.95;;
49688;SDS011;70518;51.400;7.428;2023-09-30T04:49:57;9.23;;;2.33;;
49688;SDS011;70518;51.400;7.428;2023-09-30T04:52:23;8.25;;;2.63;;
49688;SDS011;70518;51.400;7.428;2023-09-30T04:54:52;8.20;;;2.85;;
49688;SDS011;70518;51.400;7.428;2023-09-30T04:57:17;7.65;;;2.50;;
49688;SDS011;70518;51.400;7.428;2023-09-30T04:59:44;6.68;;;2.15;;
49688;SDS011;70518;51.400;7.428;2023-09-30T05:02:09;8.60;;;2.10;;
49688;SDS011;70518;51.400;7.428;2023-09-30T05:04:36;10.05;;;2.38;;
49688;SDS011;70518;51.400;7.428;2023-09-30T05:07:01;8.40;;;2.83;;
49688;SDS011;70518;51.400;7.428;2023-09-30T05:09:28;8.55;;;2.50;;
49688;SDS011;70518;51.400;7.428;2023-09-30T05:11:54;7.53;;;2.92;;
49688;SDS011;70518;51.400;7.428;2023-09-30T05:14:20;10.07;;;2.78;;
49688;SDS011;70518;51.400;7.428;2023-09-30T05:16:46;7.18;;;2.85;;
49688;SDS011;70518;51.400;7.428;2023-09-30T05:19:12;6.90;;;2.47;;
49688;SDS011;70518;51.400;7.428;2023-09-30T05:21:37;5.57;;;2.90;;
49688;SDS011;70518;51.400;7.428;2023-09-30T05:24:03;8.80;;;2.30;;
49688;SDS011;70518;51.400;7.428;2023-09-30T05:26:30;6.43;;;2.10;;
49688;SDS011;70518;51.400;7.428;2023-09-30T05:28:55;10.25;;;2.90;;
49688;SDS011;70518;51.400;7.428;2023-09-30T05:31:20;8.90;;;2.60;;
49688;SDS011;70518;51.400;7.428;2023-09-30T05:33:46;8.10;;;2.38;;
49688;SDS011;70518;51.400;7.428;2023-09-30T05:36:11;7.65;;;2.38;;
49688;SDS011;70518;51.400;7.428;2023-09-30T05:38:38;5.57;;;1.67;;
49688;SDS011;70518;51.400;7.428;2023-09-30T05:41:03;5.72;;;2.33;;
49688;SDS011;70518;51.400;7.428;2023-09-30T05:43:31;7.38;;;2.13;;
49688;SDS011;70518;51.400;7.428;2023-09-30T05:45:57;7.70;;;2.38;;
49688;SDS011;70518;51.400;7.428;2023-09-30T05:48:23;6.80;;;2.03;;
49688;SDS011;70518;51.400;7.428;2023-09-30T05:50:48;6.18;;;1.75;;
49688;SDS011;70518;51.400;7.428;2023-09-30T05:53:14;8.63;;;2.35;;
49688;SDS011;70518;51.400;7.428;2023-09-30T05:55:40;6.45;;;2.25;;
49688;SDS011;70518;51.400;7.428;2023-09-30T05:58:12;5.30;;;1.88;;
49688;SDS011;70518;51.400;7.428;2023-09-30T06:00:39;5.45;;;2.08;;
49688;SDS011;70518;51.400;7.428;2023-09-30T06:03:07;6.03;;;2.72;;
49688;SDS011;70518;51.400;7.428;2023-09-30T06:05:32;6.95;;;2.55;;
49688;SDS011;70518;51.400;7.428;2023-09-30T06:07:59;8.90;;;2.60;;
49688;SDS011;70518;51.400;7.428;2023-09-30T06:10:30;7.93;;;2.60;;
49688;SDS011;70518;51.400;7.428;2023-09-30T06:12:55;8.32;;;2.25;;
49688;SDS011;70518;51.400;7.428;2023-09-30T06:15:22;6.32;;;2.40;;
49688;SDS011;70518;51.400;7.428;2023-09-30T06:17:50;8.40;;;2.42;;
49688;SDS011;70518;51.400;7.428;2023-09-30T06:20:17;8.57;;;2.38;;
49688;SDS011;70518;51.400;7.428;2023-09-30T06:22:47;8.98;;;2.55;;
49688;SDS011;70518;51.400;7.428;2023-09-30T06:25:16;9.02;;;2.72;;
49688;SDS011;70518;51.400;7.428;2023-09-30T06:27:43;6.07;;;2.05;;
49688;SDS011;70518;51.400;7.428;2023-09-30T06:30:12;7.13;;;2.50;;
49688;SDS011;70518;51.400;7.428;2023-09-30T06:32:38;7.93;;;2.25;;
49688;SDS011;70518;51.400;7.428;2023-09-30T06:35:05;6.22;;;2.53;;
49688;SDS011;70518;51.400;7.428;2023-09-30T06:37:34;8.73;;;2.97;;
49688;SDS011;70518;51.400;7.428;2023-09-30T06:39:59;11.75;;;2.75;;
49688;SDS011;70518;51.400;7.428;2023-09-30T06:42:28;10.05;;;2.80;;
49688;SDS011;70518;51.400;7.428;2023-09-30T06:44:54;16.02;;;3.38;;
49688;SDS011;70518;51.400;7.428;2023-09-30T06:47:19;8.73;;;2.90;;
49688;SDS011;70518;51.400;7.428;2023-09-30T06:49:45;10.65;;;2.85;;
49688;SDS011;70518;51.400;7.428;2023-09-30T06:52:11;9.63;;;3.05;;
49688;SDS011;70518;51.400;7.428;2023-09-30T06:54:36;9.07;;;3.00;;
49688;SDS011;70518;51.400;7.428;2023-09-30T06:57:02;9.63;;;3.00;;
49688;SDS011;70518;51.400;7.428;2023-09-30T06:59:27;10.10;;;3.15;;
49688;SDS011;70518;51.400;7.428;2023-09-30T07:01:53;6.78;;;2.90;;
49688;SDS011;70518;51.400;7.428;2023-09-30T07:04:19;15.05;;;3.38;;
49688;SDS011;70518;51.400;7.428;2023-09-30T07:06:44;15.00;;;3.60;;
49688;SDS011;70518;51.400;7.428;2023-09-30T07:09:10;11.57;;;3.65;;
49688;SDS011;70518;51.400;7.428;2023-09-30T07:11:37;10.48;;;3.25;;
49688;SDS011;70518;51.400;7.428;2023-09-30T07:14:02;9.50;;;3.53;;
49688;SDS011;70518;51.400;7.428;2023-09-30T07:16:27;15.00;;;4.93;;
49688;SDS011;70518;51.400;7.428;2023-09-30T07:18:52;12.98;;;5.13;;
49688;SDS011;70518;51.400;7.428;2023-09-30T07:21:18;11.30;;;4.78;;
49688;SDS011;70518;51.400;7.428;2023-09-30T07:23:43;11.48;;;4.18;;
49688;SDS011;70518;51.400;7.428;2023-09-30T07:26:08;14.40;;;5.60;;
49688;SDS011;70518;51.400;7.428;2023-09-30T07:28:34;14.85;;;5.03;;
49688;SDS011;70518;51.400;7.428;2023-09-30T07:30:59;14.02;;;4.60;;
49688;SDS011;70518;51.400;7.428;2023-09-30T07:33:24;10.45;;;4.03;;
49688;SDS011;70518;51.400;7.428;2023-09-30T07:35:49;12.95;;;4.50;;
49688;SDS011;70518;51.400;7.428;2023-09-30T07:38:15;9.82;;;3.45;;
49688;SDS011;70518;51.400;7.428;2023-09-30T07:40:40;12.52;;;4.13;;
49688;SDS011;70518;51.400;7.428;2023-09-30T07:43:09;11.23;;;4.35;;
49688;SDS011;70518;51.400;7.428;2023-09-30T07:45:37;13.63;;;3.80;;
49688;SDS011;70518;51.400;7.428;2023-09-30T07:48:02;13.55;;;4.78;;
49688;SDS011;70518;51.400;7.428;2023-09-30T07:50:29;12.25;;;4.72;;
49688;SDS011;70518;51.400;7.428;2023-09-30T07:52:55;14.23;;;4.38;;
49688;SDS011;70518;51.400;7.428;2023-09-30T07:55:20;10.93;;;4.57;;
49688;SDS011;70518;51.400;7.428;2023-09-30T07:57:46;14.50;;;4.85;;
49688;SDS011;70518;51.400;7.428;2023-09-30T08:00:11;13.40;;;4.00;;
49688;SDS011;70518;51.400;7.428;2023-09-30T08:02:40;11.70;;;4.38;;
49688;SDS011;70518;51.400;7.428;2023-09-30T08:05:06;15.40;;;4.93;;
49688;SDS011;70518;51.400;7.428;2023-09-30T08:07:31;8.35;;;3.42;;
49688;SDS011;70518;51.400;7.428;2023-09-30T08:09:57;11.00;;;4.50;;
49688;SDS011;70518;51.400;7.428;2023-09-30T08:12:23;13.30;;;4.32;;
49688;SDS011;70518;51.400;7.428;2023-09-30T08:14:48;12.57;;;4.25;;
49688;SDS011;70518;51.400;7.428;2023-09-30T08:17:16;9.48;;;3.33;;
49688;SDS011;70518;51.400;7.428;2023-09-30T08:19:42;15.90;;;3.67;;
49688;SDS011;70518;51.400;7.428;2023-09-30T08:22:08;11.48;;;4.05;;
49688;SDS011;70518;51.400;7.428;2023-09-30T08:24:34;9.95;;;3.97;;
49688;SDS011;70518;51.400;7.428;2023-09-30T08:27:00;14.18;;;3.28;;
49688;SDS011;70518;51.400;7.428;2023-09-30T08:29:26;14.45;;;3.50;;
49688;SDS011;70518;51.400;7.428;2023-09-30T08:31:51;14.95;;;3.40;;
49688;SDS011;70518;51.400;7.428;2023-09-30T08:34:16;8.35;;;3.00;;
49688;SDS011;70518;51.400;7.428;2023-09-30T08:36:42;9.85;;;3.22;;
49688;SDS011;70518;51.400;7.428;2023-09-30T08:39:08;9.95;;;2.50;;
49688;SDS011;70518;51.400;7.428;2023-09-30T08:41:35;9.60;;;2.88;;
49688;SDS011;70518;51.400;7.428;2023-09-30T08:44:01;9.18;;;2.67;;
49688;SDS011;70518;51.400;7.428;2023-09-30T08:46:31;10.63;;;2.63;;
49688;SDS011;70518;51.400;7.428;2023-09-30T08:48:57;8.10;;;2.40;;
49688;SDS011;70518;51.400;7.428;2023-09-30T08:51:25;7.15;;;2.53;;
49688;SDS011;70518;51.400;7.428;2023-09-30T08:53:50;9.55;;;2.60;;
49688;SDS011;70518;51.400;7.428;2023-09-30T08:56:18;10.57;;;2.65;;
49688;SDS011;70518;51.400;7.428;2023-09-30T08:58:46;7.68;;;1.95;;
49688;SDS011;70518;51.400;7.428;2023-09-30T09:01:11;8.05;;;2.50;;
49688;SDS011;70518;51.400;7.428;2023-09-30T09:03:38;9.93;;;2.22;;
49688;SDS011;70518;51.400;7.428;2023-09-30T09:06:04;8.07;;;1.90;;
49688;SDS011;70518;51.400;7.428;2023-09-30T09:08:29;10.73;;;2.40;;
49688;SDS011;70518;51.400;7.428;2023-09-30T09:10:58;5.43;;;1.88;;
49688;SDS011;70518;51.400;7.428;2023-09-30T09:13:25;11.70;;;2.58;;
49688;SDS011;70518;51.400;7.428;2023-09-30T09:16:07;10.18;;;2.00;;
49688;SDS011;70518;51.400;7.428;2023-09-30T09:18:33;10.55;;;2.45;;
49688;SDS011;70518;51.400;7.428;2023-09-30T09:21:10;9.52;;;2.67;;
49688;SDS011;70518;51.400;7.428;2023-09-30T09:23:40;13.15;;;2.70;;
49688;SDS011;70518;51.400;7.428;2023-09-30T09:26:07;11.32;;;2.42;;
49688;SDS011;70518;51.400;7.428;2023-09-30T09:28:36;10.38;;;2.90;;
49688;SDS011;70518;51.400;7.428;2023-09-30T09:31:18;6.68;;;1.73;;
49688;SDS011;70518;51.400;7.428;2023-09-30T09:33:45;8.90;;;2.30;;
49688;SDS011;70518;51.400;7.428;2023-09-30T09:36:10;11.38;;;2.00;;
49688;SDS011;70518;51.400;7.428;2023-09-30T09:38:46;10.02;;;2.00;;
49688;SDS011;70518;51.400;7.428;2023-09-30T09:41:13;8.05;;;1.73;;
49688;SDS011;70518;51.400;7.428;2023-09-30T09:43:41;6.78;;;0.90;;
49688;SDS011;70518;51.400;7.428;2023-09-30T09:46:07;10.38;;;1.60;;
49688;SDS011;70518;51.400;7.428;2023-09-30T09:48:36;8.35;;;1.52;;
49688;SDS011;70518;51.400;7.428;2023-09-30T09:51:02;6.43;;;1.50;;
49688;SDS011;70518;51.400;7.428;2023-09-30T09:53:34;10.00;;;1.40;;
49688;SDS011;70518;51.400;7.428;2023-09-30T09:56:01;4.13;;;1.08;;
49688;SDS011;70518;51.400;7.428;2023-09-30T09:58:28;9.75;;;1.55;;
49688;SDS011;70518;51.400;7.428;2023-09-30T10:00:58;7.80;;;1.33;;
49688;SDS011;70518;51.400;7.428;2023-09-30T10:03:25;5.95;;;1.35;;
49688;SDS011;70518;51.400;7.428;2023-09-30T10:05:51;7.72;;;1.63;;
49688;SDS011;70518;51.400;7.428;2023-09-30T10:08:17;7.50;;;1.25;;
49688;SDS011;70518;51.400;7.428;2023-09-30T10:10:47;5.60;;;0.85;;
49688;SDS011;70518;51.400;7.428;2023-09-30T10:19:07;6.22;;;1.27;;
49688;SDS011;70518;51.400;7.428;2023-09-30T10:21:36;6.78;;;1.23;;
49688;SDS011;70518;51.400;7.428;2023-09-30T10:40:46;10.00;;;1.40;;
49688;SDS011;70518;51.400;7.428;2023-09-30T10:45:56;7.47;;;1.38;;
49688;SDS011;70518;51.400;7.428;2023-09-30T10:50:59;28.98;;;9.00;;
49688;SDS011;70518;51.400;7.428;2023-09-30T10:53:50;15.00;;;4.43;;
49688;SDS011;70518;51.400;7.428;2023-09-30T10:56:16;7.55;;;1.80;;
49688;SDS011;70518;51.400;7.428;2023-09-30T10:58:43;4.95;;;1.40;;
49688;SDS011;70518;51.400;7.428;2023-09-30T11:01:13;5.93;;;1.20;;
49688;SDS011;70518;51.400;7.428;2023-09-30T11:03:42;5.68;;;1.20;;
49688;SDS011;70518;51.400;7.428;2023-09-30T11:06:13;8.52;;;1.10;;
49688;SDS011;70518;51.400;7.428;2023-09-30T11:08:44;5.30;;;1.10;;
49688;SDS011;70518;51.400;7.428;2023-09-30T11:11:36;5.13;;;1.52;;
49688;SDS011;70518;51.400;7.428;2023-09-30T11:14:02;5.00;;;0.90;;
49688;SDS011;70518;51.400;7.428;2023-09-30T11:16:39;2.75;;;0.70;;
49688;SDS011;70518;51.400;7.428;2023-09-30T11:19:06;4.57;;;0.98;;
49688;SDS011;70518;51.400;7.428;2023-09-30T11:21:33;6.80;;;1.15;;
49688;SDS011;70518;51.400;7.428;2023-09-30T11:23:58;6.72;;;1.48;;
49688;SDS011;70518;51.400;7.428;2023-09-30T11:26:32;5.28;;;1.15;;
49688;SDS011;70518;51.400;7.428;2023-09-30T11:29:08;5.45;;;0.95;;
49688;SDS011;70518;51.400;7.428;2023-09-30T11:31:39;5.88;;;1.40;;
49688;SDS011;70518;51.400;7.428;2023-09-30T11:34:05;5.85;;;1.48;;
49688;SDS011;70518;51.400;7.428;2023-09-30T11:36:34;3.85;;;1.15;;
49688;SDS011;70518;51.400;7.428;2023-09-30T11:38:59;5.82;;;1.10;;
49688;SDS011;70518;51.400;7.428;2023-09-30T11:41:35;4.57;;;1.40;;
49688;SDS011;70518;51.400;7.428;2023-09-30T11:44:11;4.03;;;1.08;;
49688;SDS011;70518;51.400;7.428;2023-09-30T11:49:39;5.60;;;1.50;;
49688;SDS011;70518;51.400;7.428;2023-09-30T11:52:12;4.45;;;1.25;;
49688;SDS011;70518;51.400;7.428;2023-09-30T11:54:41;7.07;;;1.70;;
49688;SDS011;70518;51.400;7.428;2023-09-30T11:57:10;4.20;;;1.42;;
49688;SDS011;70518;51.400;7.428;2023-09-30T11:59:42;4.35;;;1.25;;
49688;SDS011;70518;51.400;7.428;2023-09-30T12:02:08;4.43;;;1.60;;
49688;SDS011;70518;51.400;7.428;2023-09-30T12:04:34;4.10;;;1.35;;
49688;SDS011;70518;51.400;7.428;2023-09-30T12:06:59;6.13;;;1.33;;
49688;SDS011;70518;51.400;7.428;2023-09-30T12:09:25;3.28;;;0.90;;
49688;SDS011;70518;51.400;7.428;2023-09-30T12:11:53;4.97;;;1.55;;
49688;SDS011;70518;51.400;7.428;2023-09-30T12:14:19;4.65;;;1.00;;
49688;SDS011;70518;51.400;7.428;2023-09-30T12:16:45;3.80;;;1.42;;
49688;SDS011;70518;51.400;7.428;2023-09-30T12:19:16;4.28;;;1.35;;
49688;SDS011;70518;51.400;7.428;2023-09-30T12:21:43;5.57;;;1.20;;
49688;SDS011;70518;51.400;7.428;2023-09-30T12:24:12;2.95;;;1.05;;
49688;SDS011;70518;51.400;7.428;2023-09-30T12:26:41;4.97;;;1.48;;
49688;SDS011;70518;51.400;7.428;2023-09-30T12:29:06;3.85;;;1.30;;
49688;SDS011;70518;51.400;7.428;2023-09-30T12:31:34;3.38;;;1.20;;
49688;SDS011;70518;51.400;7.428;2023-09-30T12:33:59;4.88;;;1.20;;
49688;SDS011;70518;51.400;7.428;2023-09-30T12:36:24;7.20;;;1.60;;
49688;SDS011;70518;51.400;7.428;2023-09-30T12:38:50;4.63;;;1.30;;
49688;SDS011;70518;51.400;7.428;2023-09-30T12:41:15;2.65;;;1.13;;
49688;SDS011;70518;51.400;7.428;2023-09-30T12:43:40;4.60;;;1.00;;
49688;SDS011;70518;51.400;7.428;2023-09-30T12:46:07;3.60;;;1.05;;
49688;SDS011;70518;51.400;7.428;2023-09-30T12:48:33;10.65;;;2.35;;
49688;SDS011;70518;51.400;7.428;2023-09-30T12:50:59;17.92;;;5.22;;
49688;SDS011;70518;51.400;7.428;2023-09-30T12:53:24;19.02;;;5.82;;
49688;SDS011;70518;51.400;7.428;2023-09-30T12:55:49;12.02;;;3.05;;
49688;SDS011;70518;51.400;7.428;2023-09-30T12:58:15;14.52;;;4.75;;
49688;SDS011;70518;51.400;7.428;2023-09-30T13:00:40;15.02;;;4.82;;
49688;SDS011;70518;51.400;7.428;2023-09-30T13:03:05;13.75;;;4.03;;
49688;SDS011;70518;51.400;7.428;2023-09-30T13:05:33;11.57;;;2.75;;
49688;SDS011;70518;51.400;7.428;2023-09-30T13:07:58;12.77;;;3.35;;
49688;SDS011;70518;51.400;7.428;2023-09-30T13:10:24;7.07;;;2.20;;
49688;SDS011;70518;51.400;7.428;2023-09-30T13:12:49;6.85;;;2.70;;
49688;SDS011;70518;51.400;7.428;2023-09-30T13:15:15;10.02;;;2.28;;
49688;SDS011;70518;51.400;7.428;2023-09-30T13:17:44;5.93;;;1.63;;
49688;SDS011;70518;51.400;7.428;2023-09-30T13:20:09;6.72;;;1.85;;
49688;SDS011;70518;51.400;7.428;2023-09-30T13:22:36;4.15;;;0.90;;
49688;SDS011;70518;51.400;7.428;2023-09-30T13:25:03;2.72;;;0.68;;
49688;SDS011;70518;51.400;7.428;2023-09-30T13:27:30;2.67;;;0.73;;
49688;SDS011;70518;51.400;7.428;2023-09-30T13:29:56;3.75;;;0.75;;
49688;SDS011;70518;51.400;7.428;2023-09-30T13:32:23;3.65;;;0.82;;
49688;SDS011;70518;51.400;7.428;2023-09-30T13:34:50;4.30;;;1.05;;
49688;SDS011;70518;51.400;7.428;2023-09-30T13:37:15;2.35;;;0.80;;
49688;SDS011;70518;51.400;7.428;2023-09-30T13:39:40;3.05;;;1.02;;
49688;SDS011;70518;51.400;7.428;2023-09-30T13:42:06;3.00;;;0.90;;
49688;SDS011;70518;51.400;7.428;2023-09-30T13:44:32;3.05;;;0.90;;
49688;SDS011;70518;51.400;7.428;2023-09-30T13:46:57;3.22;;;0.80;;
49688;SDS011;70518;51.400;7.428;2023-09-30T13:49:22;2.50;;;0.90;;
49688;SDS011;70518;51.400;7.428;2023-09-30T13:51:47;4.65;;;1.45;;
49688;SDS011;70518;51.400;7.428;2023-09-30T13:54:13;2.60;;;0.88;;
49688;SDS011;70518;51.400;7.428;2023-09-30T13:56:39;3.60;;;0.80;;
49688;SDS011;70518;51.400;7.428;2023-09-30T13:59:04;2.40;;;1.08;;
49688;SDS011;70518;51.400;7.428;2023-09-30T14:01:30;5.47;;;0.80;;
49688;SDS011;70518;51.400;7.428;2023-09-30T14:03:56;4.53;;;1.33;;
49688;SDS011;70518;51.400;7.428;2023-09-30T14:06:22;3.88;;;0.88;;
49688;SDS011;70518;51.400;7.428;2023-09-30T14:08:48;3.08;;;1.02;;
49688;SDS011;70518;51.400;7.428;2023-09-30T14:11:13;3.83;;;1.25;;
49688;SDS011;70518;51.400;7.428;2023-09-30T14:13:38;4.18;;;1.17;;
49688;SDS011;70518;51.400;7.428;2023-09-30T14:16:04;4.07;;;1.10;;
49688;SDS011;70518;51.400;7.428;2023-09-30T14:18:30;4.63;;;0.90;;
49688;SDS011;70518;51.400;7.428;2023-09-30T14:20:55;3.75;;;0.80;;
49688;SDS011;70518;51.400;7.428;2023-09-30T14:23:21;2.30;;;1.00;;
49688;SDS011;70518;51.400;7.428;2023-09-30T14:25:46;3.88;;;1.42;;
49688;SDS011;70518;51.400;7.428;2023-09-30T14:28:11;4.57;;;1.02;;
49688;SDS011;70518;51.400;7.428;2023-09-30T14:30:37;2.78;;;0.73;;
49688;SDS011;70518;51.400;7.428;2023-09-30T14:33:02;4.15;;;0.98;;
49688;SDS011;70518;51.400;7.428;2023-09-30T14:35:28;4.25;;;0.90;;
49688;SDS011;70518;51.400;7.428;2023-09-30T14:37:53;5.50;;;0.80;;
49688;SDS011;70518;51.400;7.428;2023-09-30T14:40:19;3.45;;;1.20;;
49688;SDS011;70518;51.400;7.428;2023-09-30T14:42:45;4.60;;;1.10;;
49688;SDS011;70518;51.400;7.428;2023-09-30T14:45:10;3.95;;;1.40;;
49688;SDS011;70518;51.400;7.428;2023-09-30T14:47:36;3.55;;;1.00;;
49688;SDS011;70518;51.400;7.428;2023-09-30T14:50:01;3.83;;;1.13;;
49688;SDS011;70518;51.400;7.428;2023-09-30T14:52:33;3.67;;;1.10;;
49688;SDS011;70518;51.400;7.428;2023-09-30T14:54:58;2.47;;;0.88;;
49688;SDS011;70518;51.400;7.428;2023-09-30T14:57:24;3.00;;;1.27;;
49688;SDS011;70518;51.400;7.428;2023-09-30T14:59:50;3.30;;;1.00;;
49688;SDS011;70518;51.400;7.428;2023-09-30T15:02:15;3.63;;;0.90;;
49688;SDS011;70518;51.400;7.428;2023-09-30T15:04:41;3.28;;;1.23;;
49688;SDS011;70518;51.400;7.428;2023-09-30T15:07:06;1.92;;;0.75;;
49688;SDS011;70518;51.400;7.428;2023-09-30T15:09:31;4.03;;;1.10;;
49688;SDS011;70518;51.400;7.428;2023-09-30T15:11:57;3.40;;;1.05;;